Time;durP1;ratioP1;P1;durP2;ratioP2;P2;SDS_P1;SDS_P2;PMS_P1;PMS_P2;Temp;Humidity;BMP_temperature;BMP_pressure;BME280_temperature;BME280_humidity;BME280_pressure;Samples;Min_cycle;Max_cycle;Signal;HPM_P1;HPM_P2
2023/10/29 00:00:22;;;;;;;0.10;0.10;;;;;;;14.76;81.13;98971.72;5079553;28;20052;-84
2023/10/29 00:02:49;;;;;;;0.17;0.17;;;;;;;14.75;81.16;98979.84;5075518;28;20555;-84
2023/10/29 00:05:15;;;;;;;0.10;0.10;;;;;;;14.81;80.99;98977.59;5076416;28;20124;-85
2023/10/29 00:07:41;;;;;;;0.10;0.10;;;;;;;14.81;81.27;98963.44;5074795;28;20472;-84
2023/10/29 00:10:08;;;;;;;0.10;0.10;;;;;;;14.81;80.88;98969.59;5074616;28;20032;-84
2023/10/29 00:12:35;;;;;;;0.10;0.10;;;;;;;14.84;81.11;98961.41;5075174;28;20392;-85
2023/10/29 00:15:01;;;;;;;0.10;0.10;;;;;;;14.96;80.80;98956.19;5072311;28;20153;-84
2023/10/29 00:17:28;;;;;;;0.10;0.10;;;;;;;14.91;80.59;98953.00;5072989;28;20060;-84
2023/10/29 00:19:54;;;;;;;0.10;0.10;;;;;;;14.97;80.63;98944.59;5073056;28;20074;-84
2023/10/29 00:22:20;;;;;;;0.10;0.10;;;;;;;15.02;80.46;98939.78;5073711;28;20119;-85
2023/10/29 00:24:46;;;;;;;0.10;0.10;;;;;;;15.01;80.22;98938.06;5072655;28;20044;-84
2023/10/29 00:27:12;;;;;;;0.10;0.10;;;;;;;15.03;80.59;98936.16;5073446;28;20149;-85
2023/10/29 00:29:41;;;;;;;0.32;0.32;;;;;;;15.09;80.06;98929.53;5073229;28;20042;-85
2023/10/29 00:32:08;;;;;;;0.10;0.10;;;;;;;15.09;79.99;98929.53;5073707;28;20027;-85
2023/10/29 00:34:34;;;;;;;0.10;0.10;;;;;;;15.15;79.44;98940.66;5073840;28;20055;-85
2023/10/29 00:37:00;;;;;;;0.10;0.10;;;;;;;15.24;79.37;98931.16;5073146;28;20063;-85
2023/10/29 00:39:26;;;;;;;0.10;0.10;;;;;;;15.20;78.97;98932.28;5073608;28;20032;-85
2023/10/29 00:41:52;;;;;;;0.10;0.10;;;;;;;15.22;78.61;98914.38;5073637;28;20063;-85
2023/10/29 00:44:19;;;;;;;0.10;0.10;;;;;;;15.25;78.40;98915.97;5073431;28;20024;-84
2023/10/29 00:46:45;;;;;;;0.55;0.55;;;;;;;15.29;78.43;98896.13;5073498;28;20428;-84
2023/10/29 00:49:12;;;;;;;0.10;0.10;;;;;;;15.28;78.55;98905.09;5072796;28;20028;-85
2023/10/29 00:51:38;;;;;;;0.10;0.10;;;;;;;15.33;78.24;98902.97;5070268;28;20518;-84
2023/10/29 00:54:05;;;;;;;0.20;0.20;;;;;;;15.31;78.23;98913.72;5073506;28;20082;-84
2023/10/29 00:56:32;;;;;;;0.10;0.10;;;;;;;15.27;77.72;98903.41;5073759;28;20499;-84
2023/10/29 00:58:58;;;;;;;0.10;0.10;;;;;;;15.41;77.97;98892.56;5073336;28;20112;-84
2023/10/29 01:01:25;;;;;;;0.10;0.10;;;;;;;15.40;77.58;98885.53;5070948;28;20116;-84
2023/10/29 01:03:51;;;;;;;0.17;0.17;;;;;;;15.42;76.93;98886.28;5074469;28;20056;-83
2023/10/29 01:06:18;;;;;;;0.10;0.10;;;;;;;15.49;76.54;98886.72;5079470;28;20099;-84
2023/10/29 01:08:45;;;;;;;0.00;0.00;;;;;;;15.47;76.50;98883.28;5073933;28;20492;-84
2023/10/29 01:11:11;;;;;;;1.25;0.80;;;;;;;15.51;75.95;98882.97;5072725;28;20063;-84
2023/10/29 01:13:38;;;;;;;0.10;0.10;;;;;;;15.56;76.03;98874.59;5073094;28;20028;-84
2023/10/29 01:16:05;;;;;;;0.10;0.10;;;;;;;15.55;75.34;98888.91;5073238;28;20059;-84
2023/10/29 01:18:32;;;;;;;0.10;0.10;;;;;;;15.57;75.01;98892.34;5072477;28;20028;-85
2023/10/29 01:20:59;;;;;;;0.10;0.10;;;;;;;15.61;74.87;98888.47;5070600;28;20036;-85
2023/10/29 01:23:26;;;;;;;0.10;0.10;;;;;;;15.55;74.81;98872.91;5072451;28;20063;-84
2023/10/29 01:25:53;;;;;;;2.72;0.63;;;;;;;15.66;74.66;98875.66;5072710;28;20124;-85
2023/10/29 01:28:19;;;;;;;0.10;0.10;;;;;;;15.65;74.66;98862.41;5065382;28;20087;-85
2023/10/29 01:30:45;;;;;;;0.10;0.10;;;;;;;15.69;74.67;98871.91;5072880;28;20036;-85
2023/10/29 01:33:11;;;;;;;0.10;0.10;;;;;;;15.66;73.99;98859.66;5072249;28;20119;-85
2023/10/29 01:35:37;;;;;;;0.22;0.22;;;;;;;15.63;74.08;98869.69;5071761;28;20043;-86
2023/10/29 01:38:03;;;;;;;0.10;0.10;;;;;;;15.65;74.16;98862.41;5072178;28;20455;-84
2023/10/29 01:40:29;;;;;;;0.00;0.00;;;;;;;15.69;73.81;98858.56;5071653;28;20123;-84
2023/10/29 01:42:56;;;;;;;0.00;0.00;;;;;;;15.60;73.53;98852.09;5071560;28;20054;-84
2023/10/29 01:45:22;;;;;;;0.10;0.10;;;;;;;15.67;73.05;98836.47;5092683;28;20032;-85
2023/10/29 01:47:48;;;;;;;0.10;0.10;;;;;;;15.76;73.15;98850.94;5090506;28;20116;-85
2023/10/29 01:50:15;;;;;;;0.90;0.90;;;;;;;15.72;72.56;98842.31;5067296;28;20525;-85
2023/10/29 01:52:41;;;;;;;0.10;0.10;;;;;;;15.66;72.45;98840.09;5071454;28;20120;-86
2023/10/29 01:55:08;;;;;;;0.10;0.10;;;;;;;15.65;71.94;98839.25;5071029;28;20094;-85
2023/10/29 01:57:35;;;;;;;0.10;0.10;;;;;;;15.66;71.46;98848.09;5071225;28;20032;-85
2023/10/29 02:00:05;;;;;;;0.10;0.10;;;;;;;15.71;71.75;98863.78;5071932;28;20040;-85
2023/10/29 02:02:32;;;;;;;0.10;0.10;;;;;;;15.67;71.23;98853.31;5071164;28;20039;-85
2023/10/29 02:04:58;;;;;;;0.10;0.10;;;;;;;15.66;71.32;98854.31;5070798;28;20506;-86
2023/10/29 02:07:24;;;;;;;0.10;0.10;;;;;;;15.73;70.90;98838.69;5065029;28;20048;-85
2023/10/29 02:09:51;;;;;;;0.10;0.10;;;;;;;15.76;71.33;98857.13;5068875;28;20059;-86
2023/10/29 02:12:17;;;;;;;0.10;0.10;;;;;;;15.59;70.56;98887.75;5071821;28;20033;-85
2023/10/29 02:14:43;;;;;;;5.07;2.28;;;;;;;15.44;67.93;98884.38;5071708;28;20411;-86
2023/10/29 02:17:09;;;;;;;0.10;0.10;;;;;;;15.58;67.02;98879.84;5071161;28;20039;-86
2023/10/29 02:19:36;;;;;;;0.10;0.10;;;;;;;15.59;67.27;98903.75;5067052;28;20073;-86
2023/10/29 02:22:02;;;;;;;0.00;0.00;;;;;;;15.63;67.27;98899.06;5070398;28;20039;-86
2023/10/29 02:24:28;;;;;;;0.10;0.10;;;;;;;15.48;68.35;98920.53;5072108;28;20393;-84
2023/10/29 02:26:54;;;;;;;0.10;0.10;;;;;;;15.28;69.57;98903.28;5071976;28;20029;-83
2023/10/29 02:29:20;;;;;;;0.20;0.20;;;;;;;15.02;71.15;98908.63;5076574;28;20036;-83
2023/10/29 02:31:46;;;;;;;0.10;0.10;;;;;;;14.85;72.04;98901.81;5073385;28;20476;-83
2023/10/29 02:34:12;;;;;;;0.10;0.10;;;;;;;14.63;72.07;98885.53;5071788;28;20039;-84
2023/10/29 02:36:38;;;;;;;0.10;0.10;;;;;;;14.47;72.07;98875.91;5071648;28;20510;-83
2023/10/29 02:39:06;;;;;;;0.00;0.00;;;;;;;14.38;72.36;98879.19;5074268;28;20396;-84
2023/10/29 02:41:32;;;;;;;0.10;0.10;;;;;;;14.20;72.96;98874.13;5074977;28;20456;-85
2023/10/29 02:43:58;;;;;;;0.10;0.10;;;;;;;13.97;73.63;98861.50;5076085;28;20036;-83
2023/10/29 02:46:25;;;;;;;0.10;0.10;;;;;;;13.90;74.01;98869.88;5073012;28;20032;-83
2023/10/29 02:48:51;;;;;;;0.10;0.10;;;;;;;13.71;74.37;98872.91;5072277;28;20036;-83
2023/10/29 02:51:17;;;;;;;0.10;0.10;;;;;;;13.41;75.88;98894.34;5071965;28;20066;-84
2023/10/29 02:53:43;;;;;;;0.25;0.25;;;;;;;13.41;76.91;98865.09;5075643;28;20039;-84
2023/10/29 02:56:10;;;;;;;0.08;0.08;;;;;;;13.45;76.96;98834.66;5074548;28;20021;-84
2023/10/29 02:58:36;;;;;;;1.52;0.65;;;;;;;13.37;77.97;98848.47;5073938;28;20041;-84
2023/10/29 03:01:06;;;;;;;0.00;0.00;;;;;;;13.41;78.33;98854.44;5071266;28;20052;-84
2023/10/29 03:03:33;;;;;;;0.10;0.10;;;;;;;13.41;79.73;98854.44;5071301;28;20523;-84
2023/10/29 03:06:04;;;;;;;0.10;0.10;;;;;;;13.49;79.04;98851.28;5070814;28;20059;-84
2023/10/29 03:08:30;;;;;;;0.03;0.03;;;;;;;13.55;78.45;98846.41;5071730;28;20055;-84
2023/10/29 03:10:56;;;;;;;0.10;0.10;;;;;;;13.52;79.22;98845.75;5070581;28;20040;-85
2023/10/29 03:13:22;;;;;;;0.10;0.10;;;;;;;13.57;78.97;98839.19;5070663;28;20040;-85
2023/10/29 03:15:48;;;;;;;0.10;0.10;;;;;;;13.59;79.30;98839.97;5069414;28;20052;-84
2023/10/29 03:18:14;;;;;;;0.10;0.10;;;;;;;13.59;79.89;98839.97;5070379;28;20131;-85
2023/10/29 03:20:41;;;;;;;0.10;0.10;;;;;;;13.68;79.91;98850.94;5070630;28;20032;-85
2023/10/29 03:23:08;;;;;;;0.10;0.10;;;;;;;13.74;80.38;98853.22;5070551;28;20589;-85
2023/10/29 03:25:34;;;;;;;0.10;0.10;;;;;;;13.77;79.95;98847.72;5070566;28;20037;-84
2023/10/29 03:28:01;;;;;;;0.47;0.47;;;;;;;13.79;80.12;98848.44;5070134;28;20035;-85
2023/10/29 03:30:27;;;;;;;0.10;0.10;;;;;;;13.77;80.03;98855.69;5070902;28;20149;-85
2023/10/29 03:32:53;;;;;;;0.10;0.10;;;;;;;13.85;80.05;98861.34;5070531;28;20029;-85
2023/10/29 03:35:19;;;;;;;0.10;0.10;;;;;;;13.82;80.05;98856.25;5073530;28;20078;-84
2023/10/29 03:37:45;;;;;;;0.10;0.10;;;;;;;13.90;79.58;98851.25;5074067;28;20533;-84
2023/10/29 03:40:11;;;;;;;0.10;0.10;;;;;;;13.95;79.16;98853.63;5071131;28;20046;-85
2023/10/29 03:42:38;;;;;;;0.10;0.10;;;;;;;13.99;78.95;98849.78;5070745;28;20039;-84
2023/10/29 03:45:04;;;;;;;0.15;0.15;;;;;;;14.05;78.41;98841.38;5072081;28;20101;-84
2023/10/29 03:47:30;;;;;;;0.10;0.10;;;;;;;14.07;78.10;98847.47;5073794;28;20047;-84
2023/10/29 03:49:56;;;;;;;0.10;0.10;;;;;;;14.16;77.85;98854.00;5073989;28;20040;-84
2023/10/29 03:52:22;;;;;;;0.10;0.10;;;;;;;14.16;77.72;98850.50;5072405;28;20031;-85
2023/10/29 03:54:49;;;;;;;0.10;0.10;;;;;;;14.20;77.50;98863.47;5074169;28;20400;-85
2023/10/29 03:57:15;;;;;;;0.10;0.10;;;;;;;14.29;77.13;98855.84;5072755;28;20082;-84
2023/10/29 03:59:41;;;;;;;0.10;0.10;;;;;;;14.31;77.18;98864.59;5073931;28;20043;-84
2023/10/29 04:02:08;;;;;;;0.10;0.10;;;;;;;14.36;76.70;98862.47;5073657;28;20398;-84
2023/10/29 04:04:35;;;;;;;0.10;0.10;;;;;;;14.32;76.73;98871.63;5073657;28;20167;-85
2023/10/29 04:07:02;;;;;;;0.10;0.10;;;;;;;14.33;76.13;98858.22;5073443;28;20399;-85
2023/10/29 04:09:28;;;;;;;0.10;0.10;;;;;;;14.41;76.05;98865.66;5072946;28;20381;-85
2023/10/29 04:11:55;;;;;;;0.10;0.10;;;;;;;14.36;75.61;98870.47;5073535;28;20032;-85
2023/10/29 04:14:21;;;;;;;0.10;0.10;;;;;;;14.44;74.95;98878.78;5073520;28;20048;-84
2023/10/29 04:16:48;;;;;;;0.10;0.10;;;;;;;14.44;74.64;98881.44;5073672;28;20033;-86
2023/10/29 04:19:14;;;;;;;0.00;0.00;;;;;;;14.46;74.61;98881.34;5073023;28;20028;-85
2023/10/29 04:21:40;;;;;;;0.10;0.10;;;;;;;14.54;73.96;98887.88;5074102;28;20032;-85
2023/10/29 04:24:06;;;;;;;0.17;0.17;;;;;;;14.50;73.71;98891.69;5073926;28;20024;-85
2023/10/29 04:26:32;;;;;;;0.10;0.10;;;;;;;14.49;73.03;98890.00;5073904;28;20028;-85
2023/10/29 04:28:59;;;;;;;0.10;0.10;;;;;;;14.44;72.75;98893.91;5073238;28;20032;-85
2023/10/29 04:31:25;;;;;;;0.10;0.10;;;;;;;14.48;72.54;98890.94;5073556;28;20028;-86
2023/10/29 04:33:51;;;;;;;0.10;0.10;;;;;;;14.53;72.26;98896.81;5072738;28;20111;-85
2023/10/29 04:36:19;;;;;;;0.10;0.10;;;;;;;14.43;71.11;98903.72;5073549;28;20071;-85
2023/10/29 04:38:46;;;;;;;0.10;0.10;;;;;;;14.50;71.17;98907.66;5073897;28;20064;-85
2023/10/29 04:41:12;;;;;;;0.10;0.10;;;;;;;14.49;69.57;98906.00;5073404;28;20119;-85
2023/10/29 04:43:41;;;;;;;0.10;0.10;;;;;;;14.45;69.75;98899.13;5073484;28;20047;-85
2023/10/29 04:46:08;;;;;;;0.10;0.10;;;;;;;14.44;69.15;98918.75;5084811;28;20059;-83
2023/10/29 04:48:35;;;;;;;0.10;0.10;;;;;;;14.52;70.00;98926.25;5093082;28;20025;-83
2023/10/29 04:51:01;;;;;;;0.10;0.10;;;;;;;14.47;70.34;98921.22;5077661;28;20055;-84
2023/10/29 04:53:27;;;;;;;0.10;0.10;;;;;;;14.37;70.85;98928.97;5073261;28;20408;-85
2023/10/29 04:55:53;;;;;;;0.10;0.10;;;;;;;14.29;70.77;98935.75;5073140;28;20059;-85
2023/10/29 04:58:20;;;;;;;0.10;0.10;;;;;;;14.37;70.55;98928.13;5068293;28;20480;-84
2023/10/29 05:00:46;;;;;;;0.10;0.10;;;;;;;14.48;70.75;98925.59;5072069;28;20085;-84
2023/10/29 05:03:12;;;;;;;0.10;0.10;;;;;;;14.32;70.05;98935.56;5071688;28;20033;-85
2023/10/29 05:05:38;;;;;;;0.20;0.20;;;;;;;14.35;70.41;98932.69;5072054;28;20033;-85
2023/10/29 05:08:04;;;;;;;0.13;0.13;;;;;;;14.34;70.76;98915.00;5072750;28;20389;-85
2023/10/29 05:10:30;;;;;;;0.10;0.10;;;;;;;14.37;70.77;98920.13;5072626;28;20089;-84
2023/10/29 05:12:56;;;;;;;0.10;0.10;;;;;;;14.34;70.63;98904.34;5072032;28;20035;-84
2023/10/29 05:15:22;;;;;;;0.40;0.40;;;;;;;14.22;70.62;98919.34;5072446;28;20048;-84
2023/10/29 05:17:49;;;;;;;0.45;0.45;;;;;;;14.14;70.63;98930.47;5072398;28;20032;-85
2023/10/29 05:20:15;;;;;;;0.10;0.10;;;;;;;14.11;70.88;98933.34;5071607;28;20036;-85
2023/10/29 05:22:41;;;;;;;0.10;0.10;;;;;;;14.09;70.89;98935.25;5072521;28;20110;-86
2023/10/29 05:25:08;;;;;;;0.10;0.10;;;;;;;14.15;71.03;98942.84;5072216;28;20028;-85
2023/10/29 05:27:34;;;;;;;0.10;0.10;;;;;;;14.20;70.35;98964.69;5072620;28;20029;-85
2023/10/29 05:30:01;;;;;;;0.35;0.35;;;;;;;14.30;70.33;98938.31;5072041;28;20032;-84
2023/10/29 05:32:28;;;;;;;0.10;0.10;;;;;;;14.30;70.46;98948.97;5071652;28;20487;-84
2023/10/29 05:34:55;;;;;;;0.10;0.10;;;;;;;14.21;70.10;98947.75;5071971;28;20059;-85
2023/10/29 05:37:21;;;;;;;0.10;0.10;;;;;;;14.23;70.21;98959.19;5067923;28;20021;-85
2023/10/29 05:39:47;;;;;;;0.10;0.10;;;;;;;14.20;70.33;98964.69;5071851;28;20123;-85
2023/10/29 05:42:14;;;;;;;0.10;0.10;;;;;;;14.19;70.21;98965.69;5066042;28;20032;-86
2023/10/29 05:44:40;;;;;;;0.10;0.10;;;;;;;14.21;70.28;98976.22;5071089;28;20028;-85
2023/10/29 05:47:06;;;;;;;0.17;0.17;;;;;;;14.14;69.93;98975.75;5069626;28;20025;-85
2023/10/29 05:49:32;;;;;;;0.10;0.10;;;;;;;14.11;69.45;98981.28;5071185;28;20131;-86
2023/10/29 05:51:58;;;;;;;0.10;0.10;;;;;;;14.18;69.19;98995.03;5068466;28;20028;-85
2023/10/29 05:54:24;;;;;;;0.10;0.10;;;;;;;14.07;69.47;98993.09;5059622;28;20125;-85
2023/10/29 05:56:51;;;;;;;0.10;0.10;;;;;;;14.12;68.94;98985.66;5072129;28;20032;-86
2023/10/29 05:59:18;;;;;;;0.10;0.10;;;;;;;14.06;69.16;98999.38;5053654;28;20064;-85
2023/10/29 06:01:44;;;;;;;0.10;0.10;;;;;;;13.97;69.30;98999.94;5071109;28;20032;-85
2023/10/29 06:04:10;;;;;;;0.10;0.10;;;;;;;13.91;69.15;98999.38;5072061;28;20043;-85
2023/10/29 06:06:36;;;;;;;0.10;0.10;;;;;;;13.92;69.40;98997.59;5079847;28;20078;-84
2023/10/29 06:09:03;;;;;;;0.10;0.10;;;;;;;13.94;69.40;98990.34;5067675;28;20034;-85
2023/10/29 06:11:29;;;;;;;0.10;0.10;;;;;;;14.08;69.14;99002.78;5069352;28;20078;-85
2023/10/29 06:13:57;;;;;;;0.03;0.03;;;;;;;13.99;69.23;98998.06;5071553;28;20394;-85
2023/10/29 06:16:24;;;;;;;0.10;0.10;;;;;;;13.99;69.49;98998.06;5070611;28;20024;-85
2023/10/29 06:18:51;;;;;;;0.10;0.10;;;;;;;13.88;69.81;99028.88;5071322;28;20040;-85
2023/10/29 06:21:20;;;;;;;0.10;0.10;;;;;;;13.79;70.33;99029.44;5053878;28;20025;-84
2023/10/29 06:23:46;;;;;;;0.20;0.20;;;;;;;13.78;70.25;99043.69;5071951;28;20029;-85
2023/10/29 06:26:13;;;;;;;0.10;0.10;;;;;;;13.78;70.20;99022.41;5071445;28;20036;-85
2023/10/29 06:28:39;;;;;;;0.10;0.10;;;;;;;13.82;70.12;99029.25;5072563;28;20029;-85
2023/10/29 06:31:05;;;;;;;0.10;0.10;;;;;;;13.77;70.22;99044.66;5073511;28;20581;-86
2023/10/29 06:33:31;;;;;;;0.00;0.00;;;;;;;13.78;70.32;99033.03;5070585;28;20039;-85
2023/10/29 06:35:58;;;;;;;0.10;0.10;;;;;;;13.71;70.51;99035.25;5066599;28;20035;-86
2023/10/29 06:38:24;;;;;;;0.88;0.85;;;;;;;13.74;70.24;99060.81;5070988;28;20039;-86
2023/10/29 06:40:51;;;;;;;0.10;0.10;;;;;;;13.69;70.69;99049.59;5067660;28;20090;-85
2023/10/29 06:43:17;;;;;;;0.10;0.10;;;;;;;13.65;70.76;99045.44;5070973;28;20440;-86
2023/10/29 06:45:43;;;;;;;0.10;0.10;;;;;;;13.64;71.06;99075.63;5071024;28;20105;-86
2023/10/29 06:48:09;;;;;;;0.20;0.20;;;;;;;13.57;71.78;99078.69;5071071;28;20043;-86
2023/10/29 06:50:36;;;;;;;0.15;0.15;;;;;;;13.64;71.62;99079.16;5070983;28;20040;-85
2023/10/29 06:53:03;;;;;;;0.03;0.03;;;;;;;13.55;72.09;99080.56;5070678;28;20032;-88
2023/10/29 06:55:29;;;;;;;0.10;0.10;;;;;;;13.52;72.19;99096.72;5070947;28;20585;-85
2023/10/29 06:57:55;;;;;;;0.10;0.10;;;;;;;13.64;71.79;99088.94;5071852;28;20062;-85
2023/10/29 07:00:21;;;;;;;0.10;0.10;;;;;;;13.56;71.84;99092.09;5072627;28;20033;-86
2023/10/29 07:02:47;;;;;;;0.20;0.20;;;;;;;13.63;71.50;99103.19;5071180;28;20165;-85
2023/10/29 07:05:13;;;;;;;1.30;0.75;;;;;;;13.59;71.19;99102.53;5066992;28;20024;-86
2023/10/29 07:07:39;;;;;;;0.10;0.10;;;;;;;13.61;71.34;99129.03;5070698;28;20036;-85
2023/10/29 07:10:06;;;;;;;0.10;0.10;;;;;;;13.49;71.93;99128.81;5065213;28;20036;-86
2023/10/29 07:12:32;;;;;;;0.10;0.10;;;;;;;13.50;71.83;99133.19;5065346;28;20033;-88
2023/10/29 07:14:59;;;;;;;0.10;0.10;;;;;;;13.62;71.76;99149.38;5069687;28;20032;-86
2023/10/29 07:17:25;;;;;;;0.10;0.10;;;;;;;13.63;71.85;99175.03;5071291;28;20033;-86
2023/10/29 07:19:52;;;;;;;0.10;0.10;;;;;;;13.56;72.61;99161.25;5070588;28;20487;-87
2023/10/29 07:22:21;;;;;;;0.10;0.10;;;;;;;13.68;72.10;99164.97;5069387;28;20440;-86
2023/10/29 07:24:47;;;;;;;0.10;0.10;;;;;;;13.68;71.89;99160.53;5075317;28;20059;-85
2023/10/29 07:27:13;;;;;;;0.10;0.10;;;;;;;13.66;71.82;99189.03;5074909;28;20098;-85
2023/10/29 07:29:39;;;;;;;0.10;0.10;;;;;;;13.55;72.27;99168.38;5074687;28;20086;-85
2023/10/29 07:32:05;;;;;;;0.10;0.10;;;;;;;13.80;71.52;99168.72;5065801;28;20056;-86
2023/10/29 07:34:31;;;;;;;0.10;0.10;;;;;;;13.73;71.54;99173.53;5074493;28;20025;-85
2023/10/29 07:36:57;;;;;;;0.10;0.10;;;;;;;13.73;71.56;99195.72;5066841;28;20563;-85
2023/10/29 07:39:23;;;;;;;0.10;0.10;;;;;;;13.88;71.38;99185.94;5070427;28;20024;-85
2023/10/29 07:41:49;;;;;;;0.10;0.10;;;;;;;13.89;71.65;99198.31;5071025;28;20032;-86
2023/10/29 07:44:15;;;;;;;0.20;0.20;;;;;;;14.02;71.05;99197.56;5066322;28;20040;-86
2023/10/29 07:46:41;;;;;;;0.10;0.10;;;;;;;14.03;71.23;99191.28;5066355;28;20502;-86
2023/10/29 07:49:07;;;;;;;0.20;0.20;;;;;;;14.06;71.23;99191.94;5068005;28;20081;-86
2023/10/29 07:51:33;;;;;;;0.10;0.10;;;;;;;14.04;70.88;99206.31;5084874;28;20040;-85
2023/10/29 07:53:59;;;;;;;0.10;0.10;;;;;;;14.18;70.67;99197.47;5068240;28;20500;-86
2023/10/29 07:56:25;;;;;;;0.10;0.10;;;;;;;14.22;70.48;99202.53;5073166;28;20028;-86
2023/10/29 07:58:51;;;;;;;0.10;0.10;;;;;;;14.20;70.36;99204.41;5076683;28;20025;-85
2023/10/29 08:01:18;;;;;;;0.10;0.10;;;;;;;14.17;70.73;99220.59;5065793;28;20025;-85
2023/10/29 08:03:45;;;;;;;0.10;0.10;;;;;;;14.12;70.93;99237.78;5074759;28;20036;-85
2023/10/29 08:06:12;;;;;;;0.10;0.10;;;;;;;14.10;71.60;99251.22;5075755;28;20053;-85
2023/10/29 08:08:39;;;;;;;0.10;0.10;;;;;;;14.04;71.99;99254.25;5071185;28;20038;-84
2023/10/29 08:11:05;;;;;;;0.10;0.10;;;;;;;14.13;71.94;99251.03;5071158;28;20032;-85
2023/10/29 08:13:32;;;;;;;0.10;0.10;;;;;;;14.08;71.80;99229.13;5072184;28;20162;-85
2023/10/29 08:15:58;;;;;;;0.10;0.10;;;;;;;14.28;71.41;99248.38;5075372;28;20487;-85
2023/10/29 08:18:25;;;;;;;0.10;0.10;;;;;;;14.22;71.53;99239.81;5074739;28;20047;-84
2023/10/29 08:20:51;;;;;;;0.10;0.10;;;;;;;14.19;71.69;99241.81;5078903;28;20503;-84
2023/10/29 08:23:17;;;;;;;0.10;0.10;;;;;;;14.11;71.00;99241.44;5085237;28;20058;-86
2023/10/29 08:25:43;;;;;;;0.10;0.10;;;;;;;14.17;70.73;99249.91;5076283;28;20074;-84
2023/10/29 08:28:09;;;;;;;0.10;0.10;;;;;;;14.08;70.53;99253.09;5067561;28;20062;-84
2023/10/29 08:30:35;;;;;;;0.10;0.10;;;;;;;14.13;70.29;99255.50;5072663;28;20063;-85
2023/10/29 08:33:05;;;;;;;0.10;0.10;;;;;;;14.11;70.11;99258.25;5073050;28;20656;-84
2023/10/29 08:35:31;;;;;;;1.17;1.08;;;;;;;14.03;69.88;99272.03;5065040;28;20516;-84
2023/10/29 08:37:58;;;;;;;0.10;0.10;;;;;;;14.07;69.39;99275.38;5081497;28;20036;-85
2023/10/29 08:40:24;;;;;;;0.10;0.10;;;;;;;13.98;69.36;99278.56;5075051;28;20082;-84
2023/10/29 08:42:50;;;;;;;0.10;0.10;;;;;;;14.05;68.53;99261.28;5074722;28;20033;-85
2023/10/29 08:45:17;;;;;;;0.20;0.20;;;;;;;14.06;68.15;99260.34;5066351;28;20530;-85
2023/10/29 08:47:43;;;;;;;0.10;0.10;;;;;;;14.19;68.10;99282.63;5067372;28;20045;-84
2023/10/29 08:50:09;;;;;;;0.10;0.10;;;;;;;14.27;68.13;99286.63;5070128;28;20039;-84
2023/10/29 08:52:35;;;;;;;1.42;1.33;;;;;;;14.33;68.24;99278.25;5067474;28;20033;-85
2023/10/29 08:55:01;;;;;;;0.10;0.10;;;;;;;14.46;67.96;99289.06;5072365;28;20029;-84
2023/10/29 08:57:27;;;;;;;0.10;0.10;;;;;;;14.48;67.92;99304.00;5068568;28;20024;-84
2023/10/29 08:59:53;;;;;;;0.10;0.10;;;;;;;14.49;67.43;99283.50;5073744;28;20040;-85
2023/10/29 09:02:20;;;;;;;0.20;0.20;;;;;;;14.55;67.41;99312.47;5070438;28;20050;-84
2023/10/29 09:04:47;;;;;;;0.10;0.10;;;;;;;14.63;67.29;99309.31;5072600;28;20750;-85
2023/10/29 09:07:13;;;;;;;2.28;1.77;;;;;;;14.65;67.19;99320.78;5071450;28;20063;-85
2023/10/29 09:09:39;;;;;;;0.10;0.10;;;;;;;14.69;66.40;99311.63;5066732;28;20541;-83
2023/10/29 09:12:05;;;;;;;1.23;1.10;;;;;;;14.82;66.35;99315.25;5066532;28;20024;-85
2023/10/29 09:14:31;;;;;;;0.00;0.00;;;;;;;14.85;66.09;99328.41;5071704;28;20037;-85
2023/10/29 09:16:57;;;;;;;0.10;0.10;;;;;;;14.78;66.30;99321.75;5064221;28;20116;-85
2023/10/29 09:19:23;;;;;;;0.10;0.10;;;;;;;14.85;65.70;99332.88;5068377;28;20051;-85
2023/10/29 09:21:51;;;;;;;0.10;0.10;;;;;;;14.85;66.04;99308.88;5072545;28;20040;-84
2023/10/29 09:24:17;;;;;;;0.03;0.03;;;;;;;14.81;65.99;99326.88;5066541;28;20032;-85
2023/10/29 09:26:43;;;;;;;0.10;0.10;;;;;;;14.88;65.50;99333.53;5072428;28;20060;-84
2023/10/29 09:29:09;;;;;;;0.10;0.10;;;;;;;14.79;65.35;99327.94;5069076;28;20028;-85
2023/10/29 09:31:35;;;;;;;0.05;0.05;;;;;;;14.88;65.24;99335.38;5067639;28;20408;-84
2023/10/29 09:34:02;;;;;;;0.10;0.10;;;;;;;14.90;65.06;99351.28;5063769;28;20552;-85
2023/10/29 09:36:28;;;;;;;0.00;0.00;;;;;;;14.85;65.27;99338.22;5065144;28;20021;-84
2023/10/29 09:38:54;;;;;;;0.10;0.10;;;;;;;15.03;64.84;99339.72;5071093;28;20182;-85
2023/10/29 09:41:20;;;;;;;1.50;0.50;;;;;;;15.07;64.52;99339.56;5059996;28;20033;-84
2023/10/29 09:43:50;;;;;;;0.38;0.17;;;;;;;14.92;64.88;99328.88;5067433;28;20427;-84
2023/10/29 09:46:18;;;;;;;0.10;0.10;;;;;;;15.02;64.83;99339.84;5065593;28;20029;-84
2023/10/29 09:48:45;;;;;;;0.10;0.10;;;;;;;14.95;64.56;99344.69;5061802;28;20074;-83
2023/10/29 09:51:11;;;;;;;0.00;0.00;;;;;;;15.00;63.92;99333.72;5073116;28;21262;-83
2023/10/29 09:53:38;;;;;;;0.10;0.10;;;;;;;15.08;64.49;99336.78;5073660;28;20043;-83
2023/10/29 09:56:12;;;;;;;0.10;0.10;;;;;;;15.06;63.77;99325.34;5072735;28;20071;-83
2023/10/29 09:58:39;;;;;;;0.10;0.10;;;;;;;15.11;64.06;99331.25;5074002;28;20021;-83
2023/10/29 10:01:06;;;;;;;0.10;0.10;;;;;;;15.19;64.10;99323.63;5065127;28;20059;-83
2023/10/29 10:03:32;;;;;;;0.00;0.00;;;;;;;15.20;63.68;99332.47;5069829;28;21243;-84
2023/10/29 10:05:59;;;;;;;0.10;0.10;;;;;;;15.15;63.99;99316.78;5064156;28;20040;-83
2023/10/29 10:08:27;;;;;;;0.10;0.10;;;;;;;15.23;63.95;99324.28;5070250;28;20120;-84
2023/10/29 10:10:55;;;;;;;0.10;0.10;;;;;;;15.33;63.54;99311.22;5066824;28;20055;-85
2023/10/29 10:13:38;;;;;;;0.00;0.00;;;;;;;15.35;63.28;99307.50;5071662;28;20081;-85
2023/10/29 10:16:10;;;;;;;0.10;0.10;;;;;;;15.28;62.91;99316.00;5067945;28;20389;-84
2023/10/29 10:18:55;;;;;;;0.10;0.10;;;;;;;15.44;62.93;99295.38;5074513;28;20430;-82
2023/10/29 10:21:23;;;;;;;0.10;0.10;;;;;;;15.41;62.77;99310.72;5075950;28;20423;-83
2023/10/29 10:23:51;;;;;;;0.10;0.10;;;;;;;15.59;62.86;99316.66;5072849;28;20182;-82
2023/10/29 10:26:35;;;;;;;0.10;0.10;;;;;;;15.73;62.41;99315.78;5075682;28;20052;-83
2023/10/29 10:29:04;;;;;;;0.00;0.00;;;;;;;15.89;61.67;99327.19;5075677;28;20036;-83
2023/10/29 10:31:33;;;;;;;0.00;0.00;;;;;;;16.05;62.09;99328.81;5075239;28;20039;-82
2023/10/29 10:34:19;;;;;;;1.23;1.20;;;;;;;16.11;60.46;99339.97;5073707;28;20033;-82
2023/10/29 10:36:49;;;;;;;0.00;0.00;;;;;;;16.06;60.65;99344.72;5075184;28;20423;-83
2023/10/29 10:39:19;;;;;;;0.00;0.00;;;;;;;15.97;60.35;99346.19;5075117;28;20060;-83
2023/10/29 10:41:47;;;;;;;0.10;0.10;;;;;;;16.05;61.07;99334.16;5071168;28;20032;-83
2023/10/29 10:44:21;;;;;;;0.00;0.00;;;;;;;16.14;60.75;99347.75;5074700;28;20032;-83
2023/10/29 10:49:24;;;;;;;0.10;0.10;;;;;;;16.11;60.01;99382.72;5104757;27;20362;-84
2023/10/29 10:51:54;;;;;;;0.00;0.00;;;;;;;16.12;59.80;99405.78;5100005;28;20032;-84
2023/10/29 10:54:22;;;;;;;0.10;0.10;;;;;;;16.01;59.58;99409.19;5099240;28;20043;-83
2023/10/29 10:56:49;;;;;;;0.10;0.10;;;;;;;16.03;59.73;99419.75;5101916;28;20060;-83
2023/10/29 10:59:16;;;;;;;0.10;0.10;;;;;;;15.90;59.50;99409.03;5105857;28;20657;-84
2023/10/29 11:01:42;;;;;;;0.10;0.10;;;;;;;15.92;60.50;99395.56;5111870;28;20044;-83
2023/10/29 11:04:10;;;;;;;0.20;0.20;;;;;;;15.92;60.29;99372.38;5101753;28;20070;-82
2023/10/29 11:06:37;;;;;;;0.10;0.10;;;;;;;16.02;59.86;99356.59;5113381;28;20125;-83
2023/10/29 11:09:06;;;;;;;0.00;0.00;;;;;;;15.97;60.27;99346.19;5113478;28;20020;-82
2023/10/29 11:11:38;;;;;;;0.20;0.20;;;;;;;15.90;60.20;99358.28;5116851;28;20059;-82
2023/10/29 11:14:08;;;;;;;;;;;;;;;16.18;59.22;99367.13;5117556;28;20118;-83
2023/10/29 11:16:45;;;;;;;0.10;0.10;;;;;;;16.00;59.51;99345.16;5103591;28;19973;-82
2023/10/29 11:22:19;;;;;;;0.10;0.10;;;;;;;15.94;59.44;99335.72;5108339;27;20383;-83
2023/10/29 11:27:47;;;;;;;0.10;0.10;;;;;;;15.92;59.71;99344.81;5089916;27;20175;-84
2023/10/29 11:30:16;;;;;;;1.88;0.50;;;;;;;15.87;59.53;99330.91;5072312;28;20036;-83
2023/10/29 11:32:44;;;;;;;0.00;0.00;;;;;;;16.00;59.77;99319.31;5072798;28;20372;-85
2023/10/29 11:35:19;;;;;;;0.20;0.20;;;;;;;16.04;58.99;99301.25;5071981;28;20028;-85
2023/10/29 11:37:48;;;;;;;11.88;1.50;;;;;;;16.07;59.51;99300.19;5067455;28;20119;-83
2023/10/29 11:43:18;;;;;;;0.00;0.00;;;;;;;16.26;59.51;99291.75;5084697;27;20454;-83